sensor_id;sensor_type;location;lat;lon;timestamp;pressure;altitude;pressure_sealevel;temperature;humidity
76519;BME280;67029;51.054;13.798;2023-02-24T00:01:57;99739.94;;;13.41;63.50
76519;BME280;67029;51.054;13.798;2023-02-24T00:04:28;99732.69;;;13.38;63.88
76519;BME280;67029;51.054;13.798;2023-02-24T00:06:56;99725.99;;;13.40;63.95
76519;BME280;67029;51.054;13.798;2023-02-24T00:09:28;99720.73;;;13.40;63.86
76519;BME280;67029;51.054;13.798;2023-02-24T00:12:02;99723.02;;;13.43;63.82
76519;BME280;67029;51.054;13.798;2023-02-24T00:14:29;99718.53;;;13.47;63.91
76519;BME280;67029;51.054;13.798;2023-02-24T00:16:57;99714.46;;;13.47;63.79
76519;BME280;67029;51.054;13.798;2023-02-24T00:19:29;99716.33;;;13.47;63.71
76519;BME280;67029;51.054;13.798;2023-02-24T00:21:59;99718.72;;;13.46;63.70
76519;BME280;67029;51.054;13.798;2023-02-24T00:24:29;99716.23;;;13.47;63.75
76519;BME280;67029;51.054;13.798;2023-02-24T00:27:01;99713.53;;;13.47;63.55
76519;BME280;67029;51.054;13.798;2023-02-24T00:29:30;99715.92;;;13.38;63.82
76519;BME280;67029;51.054;13.798;2023-02-24T00:32:00;99713.65;;;13.38;63.69
76519;BME280;67029;51.054;13.798;2023-02-24T00:34:32;99711.68;;;13.31;63.85
76519;BME280;67029;51.054;13.798;2023-02-24T00:37:01;99713.68;;;13.24;64.11
76519;BME280;67029;51.054;13.798;2023-02-24T00:39:31;99711.91;;;13.13;64.24
76519;BME280;67029;51.054;13.798;2023-02-24T00:42:04;99715.44;;;13.07;64.44
76519;BME280;67029;51.054;13.798;2023-02-24T00:44:34;99713.50;;;13.07;64.46
76519;BME280;67029;51.054;13.798;2023-02-24T00:47:05;99712.38;;;13.02;64.43
76519;BME280;67029;51.054;13.798;2023-02-24T00:49:36;99709.23;;;13.08;64.74
76519;BME280;67029;51.054;13.798;2023-02-24T00:52:04;99707.37;;;13.06;64.63
76519;BME280;67029;51.054;13.798;2023-02-24T00:54:36;99706.12;;;13.02;64.56
76519;BME280;67029;51.054;13.798;2023-02-24T00:57:04;99704.08;;;12.89;64.95
76519;BME280;67029;51.054;13.798;2023-02-24T00:59:35;99704.32;;;12.87;64.86
76519;BME280;67029;51.054;13.798;2023-02-24T01:02:06;99703.70;;;12.91;65.10
76519;BME280;67029;51.054;13.798;2023-02-24T01:04:36;99698.25;;;12.89;64.74
76519;BME280;67029;51.054;13.798;2023-02-24T01:07:06;99695.95;;;12.86;64.75
76519;BME280;67029;51.054;13.798;2023-02-24T01:09:37;99693.86;;;12.88;64.69
76519;BME280;67029;51.054;13.798;2023-02-24T01:12:11;99693.18;;;12.90;64.74
76519;BME280;67029;51.054;13.798;2023-02-24T01:14:37;99694.81;;;12.95;64.64
76519;BME280;67029;51.054;13.798;2023-02-24T01:17:07;99690.43;;;12.94;64.54
76519;BME280;67029;51.054;13.798;2023-02-24T01:19:37;99686.84;;;12.95;64.39
76519;BME280;67029;51.054;13.798;2023-02-24T01:22:08;99691.56;;;12.89;64.22
76519;BME280;67029;51.054;13.798;2023-02-24T01:24:39;99689.20;;;12.88;64.44
76519;BME280;67029;51.054;13.798;2023-02-24T01:27:10;99688.95;;;12.85;64.26
76519;BME280;67029;51.054;13.798;2023-02-24T01:29:39;99682.09;;;12.80;64.34
76519;BME280;67029;51.054;13.798;2023-02-24T01:32:13;99684.14;;;12.77;64.59
76519;BME280;67029;51.054;13.798;2023-02-24T01:34:39;99679.81;;;12.72;64.49
76519;BME280;67029;51.054;13.798;2023-02-24T01:37:09;99681.72;;;12.68;64.48
76519;BME280;67029;51.054;13.798;2023-02-24T01:39:39;99678.70;;;12.72;64.59
76519;BME280;67029;51.054;13.798;2023-02-24T01:42:12;99669.07;;;12.74;64.43
76519;BME280;67029;51.054;13.798;2023-02-24T01:47:12;99659.10;;;12.62;64.35
76519;BME280;67029;51.054;13.798;2023-02-24T01:49:46;99664.53;;;12.51;64.43
76519;BME280;67029;51.054;13.798;2023-02-24T01:52:15;99659.88;;;12.46;64.70
76519;BME280;67029;51.054;13.798;2023-02-24T01:54:49;99654.96;;;12.49;64.60
76519;BME280;67029;51.054;13.798;2023-02-24T01:57:16;99650.73;;;12.43;64.50
76519;BME280;67029;51.054;13.798;2023-02-24T01:59:46;99654.08;;;12.45;64.51
76519;BME280;67029;51.054;13.798;2023-02-24T02:02:15;99650.70;;;12.45;64.61
76519;BME280;67029;51.054;13.798;2023-02-24T02:05:03;99643.84;;;12.51;64.14
76519;BME280;67029;51.054;13.798;2023-02-24T02:07:19;99641.73;;;12.52;64.29
76519;BME280;67029;51.054;13.798;2023-02-24T02:09:47;99644.83;;;12.53;64.11
76519;BME280;67029;51.054;13.798;2023-02-24T02:12:16;99644.06;;;12.53;64.05
76519;BME280;67029;51.054;13.798;2023-02-24T02:14:50;99642.98;;;12.50;63.94
76519;BME280;67029;51.054;13.798;2023-02-24T02:17:34;99635.52;;;12.45;63.87
76519;BME280;67029;51.054;13.798;2023-02-24T02:22:34;99632.42;;;12.41;63.80
76519;BME280;67029;51.054;13.798;2023-02-24T02:25:00;99630.98;;;12.38;63.79
76519;BME280;67029;51.054;13.798;2023-02-24T02:27:30;99627.97;;;12.34;63.76
76519;BME280;67029;51.054;13.798;2023-02-24T02:30:10;99633.96;;;12.38;63.89
76519;BME280;67029;51.054;13.798;2023-02-24T02:34:56;99629.68;;;12.31;63.78
76519;BME280;67029;51.054;13.798;2023-02-24T02:37:33;99618.59;;;12.29;63.84
76519;BME280;67029;51.054;13.798;2023-02-24T02:40:00;99620.29;;;12.31;63.72
76519;BME280;67029;51.054;13.798;2023-02-24T02:42:31;99617.77;;;12.30;63.60
76519;BME280;67029;51.054;13.798;2023-02-24T02:45:11;99616.25;;;12.33;63.69
76519;BME280;67029;51.054;13.798;2023-02-24T02:47:41;99616.62;;;12.37;63.53
76519;BME280;67029;51.054;13.798;2023-02-24T02:50:06;99613.89;;;12.30;63.47
76519;BME280;67029;51.054;13.798;2023-02-24T02:52:32;99613.16;;;12.21;63.82
76519;BME280;67029;51.054;13.798;2023-02-24T02:55:00;99618.02;;;12.20;63.72
76519;BME280;67029;51.054;13.798;2023-02-24T02:57:27;99614.04;;;12.17;63.90
76519;BME280;67029;51.054;13.798;2023-02-24T03:00:03;99611.15;;;12.15;63.96
76519;BME280;67029;51.054;13.798;2023-02-24T03:02:29;99609.97;;;12.15;63.98
76519;BME280;67029;51.054;13.798;2023-02-24T03:04:59;99608.92;;;12.08;63.94
76519;BME280;67029;51.054;13.798;2023-02-24T03:07:30;99602.36;;;11.96;64.47
76519;BME280;67029;51.054;13.798;2023-02-24T03:10:00;99602.86;;;11.96;64.45
76519;BME280;67029;51.054;13.798;2023-02-24T03:12:29;99605.50;;;11.95;64.58
76519;BME280;67029;51.054;13.798;2023-02-24T03:15:05;99605.05;;;11.95;64.81
76519;BME280;67029;51.054;13.798;2023-02-24T03:17:34;99607.83;;;11.93;64.73
76519;BME280;67029;51.054;13.798;2023-02-24T03:20:06;99609.00;;;11.94;64.92
76519;BME280;67029;51.054;13.798;2023-02-24T03:22:34;99608.17;;;11.86;65.58
76519;BME280;67029;51.054;13.798;2023-02-24T03:25:02;99609.52;;;11.84;65.01
76519;BME280;67029;51.054;13.798;2023-02-24T03:27:48;99607.86;;;11.86;65.16
76519;BME280;67029;51.054;13.798;2023-02-24T03:30:05;99601.97;;;11.88;64.99
76519;BME280;67029;51.054;13.798;2023-02-24T03:32:42;99602.63;;;11.89;65.07
76519;BME280;67029;51.054;13.798;2023-02-24T03:35:10;99599.62;;;11.87;64.83
76519;BME280;67029;51.054;13.798;2023-02-24T03:37:33;99597.84;;;11.87;64.95
76519;BME280;67029;51.054;13.798;2023-02-24T03:40:07;99600.05;;;11.86;64.74
76519;BME280;67029;51.054;13.798;2023-02-24T03:42:35;99603.80;;;11.81;64.69
76519;BME280;67029;51.054;13.798;2023-02-24T03:45:06;99608.66;;;11.78;64.84
76519;BME280;67029;51.054;13.798;2023-02-24T03:47:35;99608.84;;;11.79;64.82
76519;BME280;67029;51.054;13.798;2023-02-24T03:50:17;99606.31;;;11.81;64.69
76519;BME280;67029;51.054;13.798;2023-02-24T03:55:31;99603.67;;;11.84;64.57
76519;BME280;67029;51.054;13.798;2023-02-24T04:00:14;99609.95;;;11.79;64.38
76519;BME280;67029;51.054;13.798;2023-02-24T04:02:38;99606.98;;;11.79;64.41
76519;BME280;67029;51.054;13.798;2023-02-24T04:05:14;99606.18;;;11.75;64.35
76519;BME280;67029;51.054;13.798;2023-02-24T04:07:44;99601.39;;;11.70;64.45
76519;BME280;67029;51.054;13.798;2023-02-24T04:10:15;99600.22;;;11.72;64.36
76519;BME280;67029;51.054;13.798;2023-02-24T04:12:56;99602.89;;;11.71;64.45
76519;BME280;67029;51.054;13.798;2023-02-24T04:15:25;99597.69;;;11.52;65.14
76519;BME280;67029;51.054;13.798;2023-02-24T04:17:47;99595.73;;;11.44;64.84
76519;BME280;67029;51.054;13.798;2023-02-24T04:20:14;99596.08;;;11.44;64.80
76519;BME280;67029;51.054;13.798;2023-02-24T04:22:45;99592.22;;;11.37;64.62
76519;BME280;67029;51.054;13.798;2023-02-24T04:25:16;99588.94;;;11.32;64.77
76519;BME280;67029;51.054;13.798;2023-02-24T04:27:44;99585.78;;;11.34;65.06
76519;BME280;67029;51.054;13.798;2023-02-24T04:30:14;99575.02;;;11.32;64.90
76519;BME280;67029;51.054;13.798;2023-02-24T04:32:45;99568.09;;;11.29;64.92
76519;BME280;67029;51.054;13.798;2023-02-24T04:35:18;99569.28;;;11.34;64.78
76519;BME280;67029;51.054;13.798;2023-02-24T04:37:46;99562.81;;;11.36;64.60
76519;BME280;67029;51.054;13.798;2023-02-24T04:40:17;99561.49;;;11.37;64.47
76519;BME280;67029;51.054;13.798;2023-02-24T04:42:48;99559.29;;;11.37;64.32
76519;BME280;67029;51.054;13.798;2023-02-24T04:45:22;99551.44;;;11.25;64.41
76519;BME280;67029;51.054;13.798;2023-02-24T04:47:48;99550.14;;;11.14;64.47
76519;BME280;67029;51.054;13.798;2023-02-24T04:50:19;99547.48;;;11.13;64.50
76519;BME280;67029;51.054;13.798;2023-02-24T04:52:55;99541.67;;;11.11;64.64
76519;BME280;67029;51.054;13.798;2023-02-24T04:55:21;99540.30;;;11.12;64.47
76519;BME280;67029;51.054;13.798;2023-02-24T04:57:52;99535.58;;;11.06;64.53
76519;BME280;67029;51.054;13.798;2023-02-24T05:00:20;99539.89;;;11.09;64.55
76519;BME280;67029;51.054;13.798;2023-02-24T05:02:52;99540.30;;;11.09;64.54
76519;BME280;67029;51.054;13.798;2023-02-24T05:05:22;99536.06;;;11.10;64.35
76519;BME280;67029;51.054;13.798;2023-02-24T05:07:52;99532.37;;;11.06;64.40
76519;BME280;67029;51.054;13.798;2023-02-24T05:10:22;99525.93;;;10.98;64.60
76519;BME280;67029;51.054;13.798;2023-02-24T05:12:56;99526.18;;;11.03;64.58
76519;BME280;67029;51.054;13.798;2023-02-24T05:15:23;99528.64;;;11.06;64.42
76519;BME280;67029;51.054;13.798;2023-02-24T05:17:53;99522.69;;;11.05;64.41
76519;BME280;67029;51.054;13.798;2023-02-24T05:20:23;99521.55;;;11.00;64.40
76519;BME280;67029;51.054;13.798;2023-02-24T05:22:53;99519.89;;;10.99;64.48
76519;BME280;67029;51.054;13.798;2023-02-24T05:25:23;99519.34;;;11.00;64.40
76519;BME280;67029;51.054;13.798;2023-02-24T05:27:53;99517.84;;;10.96;64.39
76519;BME280;67029;51.054;13.798;2023-02-24T05:30:24;99519.99;;;10.89;64.60
76519;BME280;67029;51.054;13.798;2023-02-24T05:32:54;99514.76;;;10.89;64.64
76519;BME280;67029;51.054;13.798;2023-02-24T05:35:24;99512.55;;;10.92;64.45
76519;BME280;67029;51.054;13.798;2023-02-24T05:37:54;99511.52;;;10.96;64.58
76519;BME280;67029;51.054;13.798;2023-02-24T05:40:24;99516.30;;;10.91;64.55
76519;BME280;67029;51.054;13.798;2023-02-24T05:42:54;99511.33;;;10.84;64.57
76519;BME280;67029;51.054;13.798;2023-02-24T05:45:24;99512.59;;;10.85;64.22
76519;BME280;67029;51.054;13.798;2023-02-24T05:47:54;99518.70;;;10.77;64.02
76519;BME280;67029;51.054;13.798;2023-02-24T05:50:24;99518.98;;;10.73;64.11
76519;BME280;67029;51.054;13.798;2023-02-24T05:52:54;99517.84;;;10.72;63.97
76519;BME280;67029;51.054;13.798;2023-02-24T05:55:24;99515.84;;;10.58;63.91
76519;BME280;67029;51.054;13.798;2023-02-24T05:57:54;99525.28;;;10.53;63.83
76519;BME280;67029;51.054;13.798;2023-02-24T06:00:24;99526.70;;;10.43;64.07
76519;BME280;67029;51.054;13.798;2023-02-24T06:02:54;99521.45;;;10.44;64.15
76519;BME280;67029;51.054;13.798;2023-02-24T06:05:25;99523.23;;;10.40;64.03
76519;BME280;67029;51.054;13.798;2023-02-24T06:07:55;99515.41;;;10.40;63.98
76519;BME280;67029;51.054;13.798;2023-02-24T06:10:25;99519.50;;;10.38;63.93
76519;BME280;67029;51.054;13.798;2023-02-24T06:12:55;99523.79;;;10.31;64.04
76519;BME280;67029;51.054;13.798;2023-02-24T06:15:26;99524.07;;;10.26;64.02
76519;BME280;67029;51.054;13.798;2023-02-24T06:17:55;99526.34;;;10.22;64.09
76519;BME280;67029;51.054;13.798;2023-02-24T06:20:28;99524.96;;;10.10;64.56
76519;BME280;67029;51.054;13.798;2023-02-24T06:22:56;99533.25;;;10.11;64.47
76519;BME280;67029;51.054;13.798;2023-02-24T06:25:26;99531.68;;;10.16;64.41
76519;BME280;67029;51.054;13.798;2023-02-24T06:27:56;99536.94;;;10.07;64.37
76519;BME280;67029;51.054;13.798;2023-02-24T06:30:26;99531.68;;;10.09;64.22
76519;BME280;67029;51.054;13.798;2023-02-24T06:32:56;99535.16;;;10.08;64.17
76519;BME280;67029;51.054;13.798;2023-02-24T06:35:26;99535.05;;;10.08;63.88
76519;BME280;67029;51.054;13.798;2023-02-24T06:37:56;99534.45;;;10.03;63.59
76519;BME280;67029;51.054;13.798;2023-02-24T06:40:26;99537.18;;;9.94;63.38
76519;BME280;67029;51.054;13.798;2023-02-24T06:42:56;99534.12;;;9.88;63.17
76519;BME280;67029;51.054;13.798;2023-02-24T06:45:26;99541.86;;;9.85;63.10
76519;BME280;67029;51.054;13.798;2023-02-24T06:47:56;99540.59;;;9.74;62.87
76519;BME280;67029;51.054;13.798;2023-02-24T06:50:26;99538.68;;;9.69;62.86
76519;BME280;67029;51.054;13.798;2023-02-24T06:52:56;99539.14;;;9.64;62.87
76519;BME280;67029;51.054;13.798;2023-02-24T06:55:26;99541.71;;;9.62;62.84
76519;BME280;67029;51.054;13.798;2023-02-24T06:58:00;99537.17;;;9.57;62.96
76519;BME280;67029;51.054;13.798;2023-02-24T07:00:29;99534.99;;;9.49;63.05
76519;BME280;67029;51.054;13.798;2023-02-24T07:02:57;99533.41;;;9.45;63.14
76519;BME280;67029;51.054;13.798;2023-02-24T07:05:27;99535.69;;;9.49;63.23
76519;BME280;67029;51.054;13.798;2023-02-24T07:07:57;99544.53;;;9.49;63.20
76519;BME280;67029;51.054;13.798;2023-02-24T07:10:27;99543.13;;;9.46;63.11
76519;BME280;67029;51.054;13.798;2023-02-24T07:12:57;99542.14;;;9.47;63.20
76519;BME280;67029;51.054;13.798;2023-02-24T07:15:27;99532.93;;;9.43;63.19
76519;BME280;67029;51.054;13.798;2023-02-24T07:17:57;99531.19;;;9.42;63.34
76519;BME280;67029;51.054;13.798;2023-02-24T07:20:27;99535.84;;;9.45;63.53
76519;BME280;67029;51.054;13.798;2023-02-24T07:22:57;99536.87;;;9.44;63.78
76519;BME280;67029;51.054;13.798;2023-02-24T07:25:27;99524.62;;;9.45;63.76
76519;BME280;67029;51.054;13.798;2023-02-24T07:28:00;99528.04;;;9.43;63.65
76519;BME280;67029;51.054;13.798;2023-02-24T07:30:28;99530.39;;;9.39;63.46
76519;BME280;67029;51.054;13.798;2023-02-24T07:32:59;99528.91;;;9.43;62.95
76519;BME280;67029;51.054;13.798;2023-02-24T07:35:29;99521.33;;;9.45;62.60
76519;BME280;67029;51.054;13.798;2023-02-24T07:37:59;99517.15;;;9.44;62.34
76519;BME280;67029;51.054;13.798;2023-02-24T07:40:32;99519.88;;;9.34;62.15
76519;BME280;67029;51.054;13.798;2023-02-24T07:43:00;99516.78;;;9.25;62.28
76519;BME280;67029;51.054;13.798;2023-02-24T07:45:30;99524.18;;;9.15;62.11
76519;BME280;67029;51.054;13.798;2023-02-24T07:48:00;99522.27;;;9.13;62.06
76519;BME280;67029;51.054;13.798;2023-02-24T07:50:30;99519.60;;;9.19;62.08
76519;BME280;67029;51.054;13.798;2023-02-24T07:53:00;99513.55;;;9.23;61.68
76519;BME280;67029;51.054;13.798;2023-02-24T07:55:33;99511.73;;;9.26;61.65
76519;BME280;67029;51.054;13.798;2023-02-24T07:58:02;99512.31;;;9.21;61.52
76519;BME280;67029;51.054;13.798;2023-02-24T08:00:32;99510.98;;;9.24;61.35
76519;BME280;67029;51.054;13.798;2023-02-24T08:03:02;99506.45;;;9.27;61.22
76519;BME280;67029;51.054;13.798;2023-02-24T08:05:32;99495.34;;;9.28;61.01
76519;BME280;67029;51.054;13.798;2023-02-24T08:08:02;99491.39;;;9.18;61.17
76519;BME280;67029;51.054;13.798;2023-02-24T08:10:32;99492.60;;;9.08;61.26
76519;BME280;67029;51.054;13.798;2023-02-24T08:13:02;99491.56;;;9.11;61.03
76519;BME280;67029;51.054;13.798;2023-02-24T08:15:32;99483.33;;;9.17;61.13
76519;BME280;67029;51.054;13.798;2023-02-24T08:18:03;99483.17;;;9.16;61.09
76519;BME280;67029;51.054;13.798;2023-02-24T08:20:33;99481.03;;;9.18;60.80
76519;BME280;67029;51.054;13.798;2023-02-24T08:23:03;99482.91;;;9.25;60.89
76519;BME280;67029;51.054;13.798;2023-02-24T08:25:33;99484.25;;;9.26;60.76
76519;BME280;67029;51.054;13.798;2023-02-24T08:28:06;99472.08;;;9.27;60.43
76519;BME280;67029;51.054;13.798;2023-02-24T08:30:34;99464.68;;;9.25;60.37
76519;BME280;67029;51.054;13.798;2023-02-24T08:33:05;99471.09;;;9.25;60.23
76519;BME280;67029;51.054;13.798;2023-02-24T08:35:36;99458.16;;;9.23;60.17
76519;BME280;67029;51.054;13.798;2023-02-24T08:38:06;99458.08;;;9.19;59.90
76519;BME280;67029;51.054;13.798;2023-02-24T08:40:41;99458.28;;;9.17;60.01
76519;BME280;67029;51.054;13.798;2023-02-24T08:43:08;99456.45;;;9.16;59.59
76519;BME280;67029;51.054;13.798;2023-02-24T08:45:35;99454.86;;;9.20;59.59
76519;BME280;67029;51.054;13.798;2023-02-24T08:48:05;99458.05;;;9.23;59.55
76519;BME280;67029;51.054;13.798;2023-02-24T08:50:37;99452.91;;;9.16;59.31
76519;BME280;67029;51.054;13.798;2023-02-24T08:53:06;99450.16;;;9.19;59.62
76519;BME280;67029;51.054;13.798;2023-02-24T08:55:36;99448.75;;;9.22;59.84
76519;BME280;67029;51.054;13.798;2023-02-24T08:58:09;99439.88;;;9.30;59.61
76519;BME280;67029;51.054;13.798;2023-02-24T09:00:36;99436.05;;;9.31;59.57
76519;BME280;67029;51.054;13.798;2023-02-24T09:03:07;99427.88;;;9.32;59.51
76519;BME280;67029;51.054;13.798;2023-02-24T09:05:37;99421.41;;;9.38;59.28
76519;BME280;67029;51.054;13.798;2023-02-24T09:08:07;99419.23;;;9.38;59.49
76519;BME280;67029;51.054;13.798;2023-02-24T09:10:36;99410.38;;;9.41;59.38
76519;BME280;67029;51.054;13.798;2023-02-24T09:13:07;99410.38;;;9.45;59.43
76519;BME280;67029;51.054;13.798;2023-02-24T09:15:37;99407.44;;;9.51;59.48
76519;BME280;67029;51.054;13.798;2023-02-24T09:18:07;99403.28;;;9.53;59.58
76519;BME280;67029;51.054;13.798;2023-02-24T09:20:37;99401.53;;;9.58;59.34
76519;BME280;67029;51.054;13.798;2023-02-24T09:23:07;99398.05;;;9.66;59.27
76519;BME280;67029;51.054;13.798;2023-02-24T09:25:38;99392.58;;;9.75;59.58
76519;BME280;67029;51.054;13.798;2023-02-24T09:28:10;99389.99;;;9.81;59.59
76519;BME280;67029;51.054;13.798;2023-02-24T09:30:40;99382.48;;;9.87;59.08
76519;BME280;67029;51.054;13.798;2023-02-24T09:33:13;99374.59;;;9.96;58.15
76519;BME280;67029;51.054;13.798;2023-02-24T09:35:38;99368.25;;;9.99;57.63
76519;BME280;67029;51.054;13.798;2023-02-24T09:38:08;99367.61;;;9.98;56.68
76519;BME280;67029;51.054;13.798;2023-02-24T09:40:38;99364.78;;;9.97;56.09
76519;BME280;67029;51.054;13.798;2023-02-24T09:43:13;99357.52;;;9.94;56.98
76519;BME280;67029;51.054;13.798;2023-02-24T09:45:39;99357.17;;;9.95;57.57
76519;BME280;67029;51.054;13.798;2023-02-24T09:48:16;99343.48;;;9.92;57.32
76519;BME280;67029;51.054;13.798;2023-02-24T09:50:41;99337.72;;;9.99;57.35
76519;BME280;67029;51.054;13.798;2023-02-24T09:53:13;99335.05;;;10.06;57.83
76519;BME280;67029;51.054;13.798;2023-02-24T09:55:49;99335.00;;;10.15;58.02
76519;BME280;67029;51.054;13.798;2023-02-24T09:58:36;99337.67;;;10.13;57.91
76519;BME280;67029;51.054;13.798;2023-02-24T10:01:00;99335.36;;;10.20;58.22
76519;BME280;67029;51.054;13.798;2023-02-24T10:03:22;99329.02;;;10.30;57.53
76519;BME280;67029;51.054;13.798;2023-02-24T10:05:51;99325.36;;;10.49;57.67
76519;BME280;67029;51.054;13.798;2023-02-24T10:08:19;99320.46;;;10.58;57.35
76519;BME280;67029;51.054;13.798;2023-02-24T10:10:45;99314.11;;;10.73;57.50
76519;BME280;67029;51.054;13.798;2023-02-24T10:13:22;99305.50;;;10.92;57.92
76519;BME280;67029;51.054;13.798;2023-02-24T10:15:49;99301.42;;;11.13;57.72
76519;BME280;67029;51.054;13.798;2023-02-24T10:20:46;99287.52;;;11.50;55.98
76519;BME280;67029;51.054;13.798;2023-02-24T10:23:24;99282.92;;;11.63;56.19
76519;BME280;67029;51.054;13.798;2023-02-24T10:26:01;99279.66;;;11.62;55.79
76519;BME280;67029;51.054;13.798;2023-02-24T10:28:39;99272.29;;;11.72;54.69
76519;BME280;67029;51.054;13.798;2023-02-24T10:31:07;99264.12;;;11.83;54.60
76519;BME280;67029;51.054;13.798;2023-02-24T10:33:28;99249.17;;;11.95;54.58
76519;BME280;67029;51.054;13.798;2023-02-24T10:35:49;99246.38;;;12.03;53.93
76519;BME280;67029;51.054;13.798;2023-02-24T10:38:19;99242.30;;;12.18;52.85
76519;BME280;67029;51.054;13.798;2023-02-24T10:40:52;99238.69;;;12.22;53.05
76519;BME280;67029;51.054;13.798;2023-02-24T10:43:22;99239.64;;;12.31;53.50
76519;BME280;67029;51.054;13.798;2023-02-24T10:45:50;99235.61;;;12.34;53.04
76519;BME280;67029;51.054;13.798;2023-02-24T10:48:24;99227.20;;;12.39;53.15
76519;BME280;67029;51.054;13.798;2023-02-24T10:50:53;99223.08;;;12.40;53.34
76519;BME280;67029;51.054;13.798;2023-02-24T10:53:26;99210.88;;;12.38;52.63
76519;BME280;67029;51.054;13.798;2023-02-24T10:55:54;99206.69;;;12.33;52.76
76519;BME280;67029;51.054;13.798;2023-02-24T10:58:31;99202.67;;;12.33;53.32
76519;BME280;67029;51.054;13.798;2023-02-24T11:00:55;99193.61;;;12.38;53.50
76519;BME280;67029;51.054;13.798;2023-02-24T11:03:24;99194.59;;;12.41;53.75
76519;BME280;67029;51.054;13.798;2023-02-24T11:05:54;99191.55;;;12.45;52.98
76519;BME280;67029;51.054;13.798;2023-02-24T11:08:24;99184.95;;;12.47;52.75
76519;BME280;67029;51.054;13.798;2023-02-24T11:10:54;99186.72;;;12.47;53.18
76519;BME280;67029;51.054;13.798;2023-02-24T11:13:25;99174.36;;;12.45;53.59
76519;BME280;67029;51.054;13.798;2023-02-24T11:15:54;99166.45;;;12.43;53.81
76519;BME280;67029;51.054;13.798;2023-02-24T11:18:26;99157.37;;;12.40;53.77
76519;BME280;67029;51.054;13.798;2023-02-24T11:21:03;99155.87;;;12.32;53.68
76519;BME280;67029;51.054;13.798;2023-02-24T11:23:36;99144.52;;;12.26;53.58
76519;BME280;67029;51.054;13.798;2023-02-24T11:25:59;99139.92;;;12.18;53.40
76519;BME280;67029;51.054;13.798;2023-02-24T11:28:39;99131.42;;;12.15;53.58
76519;BME280;67029;51.054;13.798;2023-02-24T11:33:44;99121.12;;;12.20;54.00
76519;BME280;67029;51.054;13.798;2023-02-24T11:36:13;99113.02;;;12.26;54.39
76519;BME280;67029;51.054;13.798;2023-02-24T11:38:44;99108.06;;;12.29;54.72
76519;BME280;67029;51.054;13.798;2023-02-24T11:41:04;99098.80;;;12.32;54.69
76519;BME280;67029;51.054;13.798;2023-02-24T11:43:32;99093.29;;;12.36;55.14
76519;BME280;67029;51.054;13.798;2023-02-24T11:46:16;99087.02;;;12.42;55.04
76519;BME280;67029;51.054;13.798;2023-02-24T11:48:33;99082.34;;;12.47;54.59
76519;BME280;67029;51.054;13.798;2023-02-24T11:51:19;99072.34;;;12.47;54.72
76519;BME280;67029;51.054;13.798;2023-02-24T11:53:48;99071.75;;;12.45;54.53
76519;BME280;67029;51.054;13.798;2023-02-24T11:58:39;99061.30;;;12.44;54.59
76519;BME280;67029;51.054;13.798;2023-02-24T12:01:18;99058.16;;;12.48;54.62
76519;BME280;67029;51.054;13.798;2023-02-24T12:06:22;99047.45;;;12.49;54.20
76519;BME280;67029;51.054;13.798;2023-02-24T12:08:38;99043.11;;;12.49;54.28
76519;BME280;67029;51.054;13.798;2023-02-24T12:11:19;99039.72;;;12.53;54.27
76519;BME280;67029;51.054;13.798;2023-02-24T12:13:44;99035.27;;;12.54;54.23
76519;BME280;67029;51.054;13.798;2023-02-24T12:16:28;99026.33;;;12.51;54.12
76519;BME280;67029;51.054;13.798;2023-02-24T12:18:41;99021.52;;;12.44;53.98
76519;BME280;67029;51.054;13.798;2023-02-24T12:21:23;99015.16;;;12.41;54.01
76519;BME280;67029;51.054;13.798;2023-02-24T12:23:41;99007.25;;;12.40;54.22
76519;BME280;67029;51.054;13.798;2023-02-24T12:31:28;98997.22;;;12.18;53.99
76519;BME280;67029;51.054;13.798;2023-02-24T12:38:49;98990.28;;;12.26;54.38
76519;BME280;67029;51.054;13.798;2023-02-24T12:41:33;98988.43;;;12.20;54.02
76519;BME280;67029;51.054;13.798;2023-02-24T12:44:06;98985.19;;;12.21;53.92
76519;BME280;67029;51.054;13.798;2023-02-24T12:46:39;98984.70;;;12.16;53.28
76519;BME280;67029;51.054;13.798;2023-02-24T12:58:45;98958.20;;;11.65;52.96
76519;BME280;67029;51.054;13.798;2023-02-24T13:03:52;98946.11;;;11.35;53.80
76519;BME280;67029;51.054;13.798;2023-02-24T13:08:57;98936.77;;;11.21;54.22
76519;BME280;67029;51.054;13.798;2023-02-24T13:13:55;98930.94;;;11.36;54.00
76519;BME280;67029;51.054;13.798;2023-02-24T13:16:27;98922.86;;;11.30;54.13
76519;BME280;67029;51.054;13.798;2023-02-24T13:18:46;98915.90;;;11.31;54.19
76519;BME280;67029;51.054;13.798;2023-02-24T13:21:21;98916.30;;;11.25;53.88
76519;BME280;67029;51.054;13.798;2023-02-24T13:23:58;98913.77;;;11.21;53.96
76519;BME280;67029;51.054;13.798;2023-02-24T13:26:24;98903.73;;;11.22;53.54
76519;BME280;67029;51.054;13.798;2023-02-24T13:29:00;98892.97;;;11.19;53.91
76519;BME280;67029;51.054;13.798;2023-02-24T13:31:18;98896.84;;;11.23;53.84
76519;BME280;67029;51.054;13.798;2023-02-24T13:33:48;98888.41;;;11.12;54.12
76519;BME280;67029;51.054;13.798;2023-02-24T13:36:23;98888.72;;;11.13;54.34
76519;BME280;67029;51.054;13.798;2023-02-24T13:39:06;98887.48;;;11.14;54.49
76519;BME280;67029;51.054;13.798;2023-02-24T13:41:34;98884.17;;;11.12;54.74
76519;BME280;67029;51.054;13.798;2023-02-24T13:43:58;98880.02;;;11.32;54.44
76519;BME280;67029;51.054;13.798;2023-02-24T13:46:21;98885.40;;;11.46;54.48
76519;BME280;67029;51.054;13.798;2023-02-24T13:48:59;98876.67;;;11.56;53.93
76519;BME280;67029;51.054;13.798;2023-02-24T14:01:28;98849.97;;;11.56;54.04
76519;BME280;67029;51.054;13.798;2023-02-24T14:04:05;98843.77;;;11.56;54.04
76519;BME280;67029;51.054;13.798;2023-02-24T14:06:25;98842.28;;;11.55;54.24
76519;BME280;67029;51.054;13.798;2023-02-24T14:08:56;98844.12;;;11.58;54.39